.
WxDataArchive / Data Records for 2009-01-10
2009-01-09 January 2009 2009-01-11

Data Records for Saturday, 10 January 2009

Time	Temp	Chill	HIndex	Humid	Dewpt	 Wind 	HiWind	WindDir	Rain 	Barom 
-----	----	-----	------	-----	-----	------	------	-------	-----	----- 
00:00	25.8	25.8	25.8	85	21.9	2	6	90	0.00	30.144 
00:05	25.8	25.8	25.8	85	21.9	2	6	112	0.00	30.144 
00:10	25.8	25.8	25.8	85	21.9	1	5	90	0.00	30.144 
00:15	26.0	26.0	26.0	85	22.1	3	6	90	0.00	30.137 
00:20	25.8	25.8	25.8	86	22.2	2	4	112	0.00	30.138 
00:25	25.8	25.8	25.8	86	22.2	2	5	90	0.00	30.137 
00:30	25.7	25.7	25.7	87	22.4	1	5	112	0.00	30.133 
00:35	25.7	25.7	25.7	87	22.4	2	7	112	0.00	30.132 
00:40	25.6	25.6	25.6	87	22.3	3	5	90	0.00	30.132 
00:45	25.6	25.6	25.6	87	22.3	2	7	112	0.00	30.128 
00:50	25.4	25.4	25.4	87	22.1	2	7	90	0.00	30.130 
00:55	25.4	20.5	25.4	87	22.1	4	10	90	0.00	30.124 
01:00	25.4	25.4	25.4	87	22.1	3	7	90	0.00	30.119 
01:05	25.4	25.4	25.4	88	22.4	2	5	90	0.00	30.117 
01:10	25.3	25.3	25.3	88	22.3	3	7	90	0.00	30.117 
01:15	25.3	25.3	25.3	88	22.3	1	4	112	0.00	30.118 
01:20	25.1	25.1	25.1	88	22.1	3	12	90	0.00	30.117 
01:25	25.1	25.1	25.1	88	22.1	3	9	90	0.00	30.118 
01:30	25.1	25.1	25.1	88	22.1	1	7	90	0.00	30.117 
01:35	25.0	25.0	25.0	88	22.0	3	7	90	0.00	30.112 
01:40	25.0	25.0	25.0	88	22.0	3	7	90	0.00	30.112 
01:45	25.0	25.0	25.0	88	22.0	2	6	90	0.00	30.113 
01:50	25.0	25.0	25.0	88	22.0	2	7	90	0.00	30.110 
01:55	24.8	19.8	24.8	88	21.8	4	8	90	0.00	30.105 
02:00	24.8	24.8	24.8	88	21.8	2	10	90	0.00	30.106 
02:05	24.8	24.8	24.8	88	21.8	3	6	112	0.00	30.100 
02:10	24.8	24.8	24.8	88	21.8	3	9	90	0.00	30.099 
02:15	24.8	24.8	24.8	88	21.8	3	7	90	0.00	30.100 
02:20	24.8	24.8	24.8	88	21.8	3	10	90	0.00	30.101 
02:25	24.8	24.8	24.8	88	21.8	3	10	90	0.00	30.099 
02:30	24.8	24.8	24.8	88	21.8	3	9	90	0.00	30.100 
02:35	24.8	19.8	24.8	88	21.8	4	11	112	0.00	30.099 
02:40	24.8	24.8	24.8	88	21.8	3	7	90	0.00	30.100 
02:45	25.0	25.0	25.0	88	22.0	3	9	112	0.00	30.104 
02:50	25.0	25.0	25.0	88	22.0	3	11	90	0.00	30.103 
02:55	25.0	25.0	25.0	88	22.0	2	9	112	0.00	30.108 
03:00	25.0	25.0	25.0	88	22.0	3	6	90	0.00	30.113 
03:05	25.0	25.0	25.0	88	22.0	3	10	112	0.00	30.109 
03:10	25.0	25.0	25.0	88	22.0	2	9	90	0.00	30.104 
03:15	25.1	25.1	25.1	88	22.1	3	6	90	0.00	30.104 
03:20	25.1	25.1	25.1	88	22.1	2	6	90	0.00	30.102 
03:25	25.1	25.1	25.1	88	22.1	3	6	112	0.00	30.101 
03:30	25.1	25.1	25.1	87	21.8	3	6	90	0.00	30.101 
03:35	25.1	25.1	25.1	87	21.8	3	10	112	0.00	30.103 
03:40	25.3	25.3	25.3	87	22.0	2	7	112	0.00	30.101 
03:45	25.3	25.3	25.3	87	22.0	2	5	112	0.00	30.100 
03:50	25.3	25.3	25.3	87	22.0	2	4	112	0.00	30.100 
03:55	25.3	25.3	25.3	87	22.0	3	7	112	0.00	30.098 
04:00	25.3	20.3	25.3	87	22.0	4	12	112	0.00	30.087 
04:05	25.3	25.3	25.3	87	22.0	3	7	90	0.00	30.085 
04:10	25.3	25.3	25.3	87	22.0	2	6	112	0.00	30.085 
04:15	25.3	25.3	25.3	88	22.3	2	5	112	0.00	30.081 
04:20	25.3	25.3	25.3	88	22.3	3	8	112	0.00	30.080 
04:25	25.3	25.3	25.3	88	22.3	3	12	112	0.00	30.080 
04:30	25.3	25.3	25.3	88	22.3	3	7	112	0.00	30.081 
04:35	25.4	25.4	25.4	88	22.4	3	7	90	0.00	30.079 
04:40	25.4	25.4	25.4	88	22.4	3	10	112	0.00	30.075 
04:45	25.4	20.5	25.4	88	22.4	4	10	90	0.00	30.069 
04:50	25.4	25.4	25.4	88	22.4	3	5	112	0.00	30.072 
04:55	25.4	25.4	25.4	88	22.4	3	10	90	0.00	30.071 
05:00	25.4	20.5	25.4	88	22.4	4	7	90	0.00	30.074 
05:05	25.3	20.3	25.3	88	22.3	4	10	90	0.00	30.069 
05:10	25.3	20.3	25.3	89	22.5	4	13	112	0.00	30.068 
05:15	25.3	20.3	25.3	89	22.5	4	11	112	0.00	30.056 
05:20	25.3	19.2	25.3	89	22.5	5	14	90	0.00	30.054 
05:25	25.3	19.2	25.3	90	22.8	5	12	112	0.00	30.050 
05:30	25.3	20.3	25.3	90	22.8	4	9	112	0.00	30.056 
05:35	25.3	25.3	25.3	90	22.8	3	10	112	0.00	30.063 
05:40	25.3	19.2	25.3	91	23.0	5	11	112	0.00	30.060 
05:45	25.3	20.3	25.3	91	23.0	4	9	112	0.00	30.060 
05:50	25.4	25.4	25.4	91	23.1	3	9	90	0.00	30.056 
05:55	25.4	25.4	25.4	91	23.1	3	9	112	0.00	30.062 
06:00	25.4	25.4	25.4	91	23.1	3	9	112	0.00	30.064 
06:05	25.4	20.5	25.4	91	23.1	4	10	90	0.00	30.054 
06:10	25.4	25.4	25.4	91	23.1	3	11	90	0.00	30.052 
06:15	25.4	25.4	25.4	91	23.1	3	10	90	0.00	30.046 
06:20	25.4	25.4	25.4	91	23.1	3	11	90	0.00	30.045 
06:25	25.6	20.7	25.6	91	23.3	4	10	90	0.00	30.046 
06:30	25.6	25.6	25.6	91	23.3	3	7	90	0.00	30.048 
06:35	25.6	25.6	25.6	91	23.3	3	9	90	0.00	30.046 
06:40	25.6	20.7	25.6	91	23.3	4	10	90	0.00	30.045 
06:45	25.6	20.7	25.6	91	23.3	4	11	112	0.00	30.045 
06:50	25.6	25.6	25.6	91	23.3	3	8	90	0.00	30.045 
06:55	25.6	20.7	25.6	91	23.3	4	9	112	0.00	30.039 
07:00	25.6	25.6	25.6	91	23.3	3	9	112	0.00	30.034 
07:05	25.6	20.7	25.6	91	23.3	4	11	112	0.00	30.036 
07:10	25.6	25.6	25.6	91	23.3	3	10	90	0.00	30.032 
07:15	25.6	20.7	25.6	91	23.3	4	10	112	0.00	30.035 
07:20	25.6	20.7	25.6	91	23.3	4	10	112	0.00	30.035 
07:25	25.6	20.7	25.6	91	23.3	4	14	90	0.00	30.034 
07:30	25.7	25.7	25.7	91	23.4	3	9	90	0.00	30.026 
07:35	25.7	25.7	25.7	91	23.4	3	7	90	0.00	30.030 
07:40	25.7	25.7	25.7	91	23.4	2	7	68	0.00	30.030 
07:45	25.7	25.7	25.7	91	23.4	3	7	90	0.00	30.034 
07:50	25.8	25.8	25.8	91	23.5	3	6	112	0.00	30.034 
07:55	25.8	25.8	25.8	91	23.5	3	10	112	0.00	30.034 
08:00	25.8	25.8	25.8	91	23.5	3	9	90	0.00	30.030 
08:05	25.8	25.8	25.8	91	23.5	3	7	112	0.00	30.032 
08:10	26.0	26.0	26.0	91	23.7	3	7	112	0.00	30.036 
08:15	26.0	26.0	26.0	91	23.7	3	10	112	0.00	30.030 
08:20	26.1	21.3	26.1	91	23.8	4	12	112	0.00	30.033 
08:25	26.3	26.3	26.3	91	24.0	3	10	112	0.00	30.028 
08:30	26.4	26.4	26.4	91	24.1	3	10	112	0.00	30.025 
08:35	26.4	26.4	26.4	91	24.1	3	9	90	0.00	30.019 
08:40	26.4	26.4	26.4	91	24.1	3	10	112	0.00	30.019 
08:45	26.4	21.6	26.4	91	24.1	4	10	112	0.00	30.018 
08:50	26.4	21.6	26.4	91	24.1	4	12	90	0.00	30.019 
08:55	26.4	21.6	26.4	91	24.1	4	10	90	0.00	30.018 
09:00	26.4	26.4	26.4	91	24.1	3	6	90	0.00	30.019 
09:05	26.4	26.4	26.4	91	24.1	3	9	112	0.00	30.019 
09:10	26.4	26.4	26.4	91	24.1	3	8	112	0.00	30.019 
09:15	26.4	26.4	26.4	91	24.1	2	6	90	0.00	30.017 
09:20	26.4	26.4	26.4	91	24.1	3	11	90	0.00	30.014 
09:25	26.6	26.6	26.6	92	24.6	2	10	90	0.00	30.009 
09:30	26.6	26.6	26.6	92	24.6	2	7	68	0.00	30.006 
09:35	26.6	21.8	26.6	91	24.3	4	12	112	0.00	30.002 
09:40	26.6	26.6	26.6	92	24.6	3	9	90	0.00	30.001 
09:45	26.7	26.7	26.7	92	24.7	3	12	90	0.00	29.998 
09:50	26.7	26.7	26.7	92	24.7	3	7	112	0.00	30.001 
09:55	26.7	26.7	26.7	92	24.7	2	7	90	0.00	30.003 
10:00	26.7	26.7	26.7	92	24.7	2	7	112	0.00	30.002 
10:05	26.7	26.7	26.7	92	24.7	2	9	112	0.00	30.003 
10:10	26.9	26.9	26.9	92	24.9	2	5	90	0.00	30.003 
10:15	26.9	26.9	26.9	92	24.9	2	11	90	0.00	30.003 
10:20	26.9	26.9	26.9	91	24.6	2	4	112	0.00	30.004 
10:25	26.7	26.7	26.7	91	24.4	2	7	68	0.00	30.004 
10:30	26.6	26.6	26.6	91	24.3	3	13	112	0.00	30.002 
10:35	26.6	26.6	26.6	91	24.3	3	10	90	0.00	30.004 
10:40	26.6	26.6	26.6	91	24.3	2	10	90	0.00	30.002 
10:45	26.6	26.6	26.6	91	24.3	2	6	112	0.00	30.002 
10:50	26.6	26.6	26.6	91	24.3	2	9	112	0.00	30.002 
10:55	26.4	26.4	26.4	91	24.1	2	6	68	0.00	30.000 
11:00	26.4	26.4	26.4	91	24.1	2	6	112	0.00	29.994 
11:05	26.4	26.4	26.4	91	24.1	2	4	112	0.00	29.996 
11:10	26.4	26.4	26.4	91	24.1	2	9	112	0.00	29.994 
11:15	26.3	26.3	26.3	90	23.8	3	8	90	0.00	29.992 
11:20	26.1	26.1	26.1	91	23.8	2	5	45	0.00	29.992 
11:25	26.0	26.0	26.0	90	23.5	3	8	90	0.00	29.987 
11:30	26.0	26.0	26.0	91	23.7	2	5	22	0.00	29.987 
11:35	26.0	26.0	26.0	91	23.7	3	10	90	0.00	29.986 
11:40	26.1	26.1	26.1	91	23.8	2	6	112	0.00	29.983 
11:45	26.1	26.1	26.1	91	23.8	2	7	22	0.00	29.980 
11:50	26.1	26.1	26.1	91	23.8	2	5	112	0.00	29.986 
11:55	26.1	26.1	26.1	91	23.8	2	6	45	0.00	29.980 
12:00	26.1	26.1	26.1	91	23.8	1	10	135	0.00	29.978 
12:05	26.1	26.1	26.1	91	23.8	1	4	112	0.00	29.976 
12:10	26.3	26.3	26.3	91	24.0	1	4	112	0.00	29.972 
12:15	26.3	26.3	26.3	91	24.0	1	6	112	0.00	29.968 
12:20	26.3	26.3	26.3	91	24.0	1	5	112	0.00	29.960 
12:25	26.3	26.3	26.3	91	24.0	2	4	112	0.00	29.957 
12:30	26.3	26.3	26.3	90	23.8	2	7	45	0.00	29.958 
12:35	26.3	26.3	26.3	90	23.8	1	6	112	0.00	29.956 
12:40	26.3	26.3	26.3	90	23.8	1	3	90	0.00	29.958 
12:45	26.4	26.4	26.4	90	23.9	1	3	135	0.00	29.960 
12:50	26.4	26.4	26.4	90	23.9	1	3	68	0.00	29.958 
12:55	26.4	26.4	26.4	90	23.9	1	3	112	0.00	29.956 
13:00	26.6	26.6	26.6	90	24.1	1	3	45	0.00	29.951 
13:05	26.6	26.6	26.6	89	23.8	1	5	45	0.00	29.941 
13:10	26.6	26.6	26.6	89	23.8	2	6	112	0.00	29.932 
13:15	26.6	26.6	26.6	89	23.8	2	7	45	0.00	29.935 
13:20	26.7	26.7	26.7	89	23.9	2	4	45	0.00	29.936 
13:25	26.7	26.7	26.7	89	23.9	2	5	22	0.00	29.926 
13:30	26.7	26.7	26.7	88	23.6	3	6	90	0.00	29.918 
13:35	26.9	26.9	26.9	88	23.8	2	7	45	0.00	29.920 
13:40	27.2	27.2	27.2	88	24.1	2	6	45	0.00	29.916 
13:45	27.2	27.2	27.2	88	24.1	2	6	90	0.00	29.924 
13:50	27.2	27.2	27.2	88	24.1	2	6	22	0.00	29.927 
13:55	27.0	27.0	27.0	88	23.9	2	5	45	0.00	29.930 
14:00	27.0	27.0	27.0	88	23.9	2	6	112	0.00	29.925 
14:05	26.9	26.9	26.9	88	23.8	1	6	22	0.00	29.925 
14:10	26.9	26.9	26.9	88	23.8	1	6	135	0.00	29.931 
14:15	26.9	26.9	26.9	88	23.8	1	6	90	0.00	29.939 
14:20	26.9	26.9	26.9	88	23.8	1	3	90	0.00	29.939 
14:25	26.7	26.7	26.7	88	23.6	1	4	22	0.00	29.941 
14:30	26.6	26.6	26.6	88	23.5	1	5	68	0.00	29.939 
14:35	26.6	26.6	26.6	88	23.5	2	5	45	0.00	29.938 
14:40	26.6	26.6	26.6	88	23.5	1	3	68	0.00	29.940 
14:45	26.4	26.4	26.4	87	23.1	2	9	112	0.00	29.943 
14:50	26.3	26.3	26.3	87	23.0	2	7	68	0.00	29.942 
14:55	26.3	26.3	26.3	87	23.0	1	5	45	0.00	29.944 
15:00	26.3	26.3	26.3	87	23.0	1	3	45	0.00	29.941 
15:05	26.1	26.1	26.1	86	22.5	1	4	338	0.00	29.943 
15:10	26.1	26.1	26.1	86	22.5	1	7	22	0.00	29.950 
15:15	26.0	26.0	26.0	86	22.4	2	6	90	0.00	29.948 
15:20	26.0	26.0	26.0	86	22.4	1	5	68	0.00	29.944 
15:25	26.0	26.0	26.0	86	22.4	0	3	135	0.00	29.944 
15:30	26.0	26.0	26.0	86	22.4	1	5	22	0.00	29.946 
15:35	26.0	26.0	26.0	86	22.4	2	7	68	0.00	29.950 
15:40	25.8	25.8	25.8	86	22.2	2	6	112	0.00	29.961 
15:45	25.8	25.8	25.8	86	22.2	1	9	90	0.00	29.964 
15:50	25.8	25.8	25.8	86	22.2	1	4	45	0.00	29.966 
15:55	25.8	25.8	25.8	87	22.5	1	3	45	0.00	29.973 
16:00	25.8	25.8	25.8	87	22.5	0	2	0	0.00	29.977 
16:05	25.8	25.8	25.8	87	22.5	0	3	0	0.00	29.981 
16:10	25.8	25.8	25.8	87	22.5	1	3	0	0.00	29.978 
16:15	25.8	25.8	25.8	87	22.5	1	6	68	0.00	29.977 
16:20	25.8	25.8	25.8	88	22.7	0	3	22	0.00	29.987 
16:25	25.8	25.8	25.8	88	22.7	0	3	0	0.00	29.987 
16:30	25.7	25.7	25.7	88	22.6	0	3	338	0.00	29.988 
16:35	25.7	25.7	25.7	88	22.6	0	3	338	0.00	29.988 
16:40	25.6	25.6	25.6	88	22.5	1	4	0	0.00	29.985 
16:45	25.4	25.4	25.4	88	22.4	1	3	45	0.00	29.975 
16:50	25.4	25.4	25.4	88	22.4	0	3	45	0.00	29.973 
16:55	25.3	25.3	25.3	89	22.5	0	2	45	0.00	29.985 
17:00	25.3	25.3	25.3	89	22.5	0	2	22	0.00	29.987 
17:05	25.1	25.1	25.1	89	22.3	0	4	45	0.00	29.984 
17:10	25.1	25.1	25.1	89	22.3	0	2	45	0.00	29.993 
17:15	25.0	25.0	25.0	89	22.2	1	4	22	0.00	29.999 
17:20	25.0	25.0	25.0	89	22.2	1	4	22	0.00	29.994 
17:25	24.8	24.8	24.8	89	22.0	0	4	22	0.00	30.001 
17:30	24.8	24.8	24.8	89	22.0	0	3	270	0.00	30.003 
17:35	24.8	24.8	24.8	89	22.0	0	3	0	0.00	30.003 
17:40	24.8	24.8	24.8	89	22.0	0	2	270	0.00	30.001 
17:45	24.8	24.8	24.8	89	22.0	0	1	270	0.00	30.004 
17:50	24.8	24.8	24.8	88	21.8	0	2	292	0.00	30.005 
17:55	24.8	24.8	24.8	88	21.8	0	2	68	0.00	30.009 
18:00	24.8	24.8	24.8	88	21.8	0	3	338	0.00	30.009 
18:05	24.8	24.8	24.8	88	21.8	0	2	338	0.00	30.012 
18:10	24.7	24.7	24.7	88	21.7	1	4	0	0.00	30.010 
18:15	24.7	24.7	24.7	87	21.4	0	2	0	0.00	30.013 
18:20	24.7	24.7	24.7	87	21.4	0	2	0	0.00	30.017 
18:25	24.5	24.5	24.5	87	21.2	1	3	0	0.00	30.018 
18:30	24.4	24.4	24.4	86	20.8	1	2	338	0.00	30.015 
18:35	24.2	24.2	24.2	85	20.4	1	3	338	0.00	30.016 
18:40	24.1	24.1	24.1	84	20.0	1	5	338	0.00	30.019 
18:45	23.9	23.9	23.9	84	19.8	0	3	22	0.00	30.021 
18:50	23.9	23.9	23.9	84	19.8	1	4	338	0.00	30.022 
18:55	23.9	23.9	23.9	84	19.8	1	3	338	0.00	30.021 
19:00	23.9	23.9	23.9	83	19.5	1	4	315	0.00	30.023 
19:05	23.9	23.9	23.9	83	19.5	0	3	22	0.00	30.026 
19:10	23.8	23.8	23.8	83	19.4	0	2	338	0.00	30.026 
19:15	23.8	23.8	23.8	83	19.4	0	2	338	0.00	30.033 
19:20	23.8	23.8	23.8	83	19.4	1	2	338	0.00	30.029 
19:25	23.8	23.8	23.8	83	19.4	0	2	338	0.00	30.029 
19:30	23.8	23.8	23.8	83	19.4	0	3	338	0.00	30.030 
19:35	23.8	23.8	23.8	83	19.4	1	3	315	0.00	30.035 
19:40	23.8	23.8	23.8	83	19.4	1	3	338	0.00	30.037 
19:45	23.8	23.8	23.8	83	19.4	1	3	45	0.00	30.038 
19:50	23.6	23.6	23.6	83	19.2	0	2	45	0.00	30.039 
19:55	23.6	23.6	23.6	83	19.2	1	4	338	0.00	30.041 
20:00	23.6	23.6	23.6	83	19.2	0	4	22	0.00	30.048 
20:05	23.6	23.6	23.6	83	19.2	0	2	22	0.00	30.047 
20:10	23.6	23.6	23.6	83	19.2	0	2	22	0.00	30.051 
20:15	23.6	23.6	23.6	83	19.2	0	3	292	0.00	30.052 
20:20	23.6	23.6	23.6	83	19.2	0	2	315	0.00	30.055 
20:25	23.6	23.6	23.6	83	19.2	0	3	292	0.00	30.054 
20:30	23.6	23.6	23.6	83	19.2	1	5	292	0.00	30.056 
20:35	23.6	23.6	23.6	83	19.2	0	3	292	0.00	30.057 
20:40	23.5	23.5	23.5	83	19.1	0	1	292	0.00	30.057 
20:45	23.5	23.5	23.5	83	19.1	0	5	292	0.00	30.056 
20:50	23.5	23.5	23.5	83	19.1	0	3	292	0.00	30.057 
20:55	23.5	23.5	23.5	83	19.1	0	3	270	0.00	30.059 
21:00	23.3	23.3	23.3	83	18.9	0	3	338	0.00	30.066 
21:05	23.3	23.3	23.3	83	18.9	0	3	338	0.00	30.067 
21:10	23.2	23.2	23.2	83	18.8	0	2	338	0.00	30.067 
21:15	23.2	23.2	23.2	83	18.8	0	2	338	0.00	30.069 
21:20	23.2	23.2	23.2	83	18.8	0	3	270	0.00	30.072 
21:25	23.2	23.2	23.2	83	18.8	1	3	338	0.00	30.078 
21:30	23.0	23.0	23.0	83	18.6	1	3	0	0.00	30.080 
21:35	23.0	23.0	23.0	82	18.3	1	3	315	0.00	30.083 
21:40	23.0	23.0	23.0	82	18.3	1	4	338	0.00	30.084 
21:45	22.9	22.9	22.9	82	18.2	1	5	270	0.00	30.085 
21:50	22.9	22.9	22.9	82	18.2	1	4	270	0.00	30.085 
21:55	22.7	22.7	22.7	82	18.0	0	2	338	0.00	30.085 
22:00	22.5	22.5	22.5	82	17.9	1	4	315	0.00	30.085 
22:05	22.2	22.2	22.2	82	17.6	0	2	315	0.00	30.087 
22:10	21.9	21.9	21.9	82	17.3	0	1	315	0.00	30.094 
22:15	21.6	21.6	21.6	82	17.0	0	3	270	0.00	30.100 
22:20	21.4	21.4	21.4	82	16.8	0	2	270	0.00	30.103 
22:25	21.1	21.1	21.1	83	16.8	0	2	292	0.00	30.103 
22:30	21.0	21.0	21.0	83	16.7	0	2	292	0.00	30.103 
22:35	20.6	20.6	20.6	83	16.3	0	2	292	0.00	30.103 
22:40	20.5	20.5	20.5	83	16.2	0	2	292	0.00	30.104 
22:45	20.3	20.3	20.3	83	16.0	0	1	292	0.00	30.107 
22:50	20.0	20.0	20.0	83	15.7	0	1	292	0.00	30.112 
22:55	19.9	19.9	19.9	84	15.9	0	2	292	0.00	30.116 
23:00	19.7	19.7	19.7	84	15.7	0	1	292	0.00	30.119 
23:05	19.5	19.5	19.5	84	15.5	0	1	292	0.00	30.120 
23:10	19.4	19.4	19.4	84	15.4	0	2	292	0.00	30.122 
23:15	19.1	19.1	19.1	84	15.1	0	1	292	0.00	30.124 
23:20	18.9	18.9	18.9	85	15.2	0	2	292	0.00	30.124 
23:25	18.8	18.8	18.8	85	15.1	0	1	292	0.00	30.129 
23:30	18.6	18.6	18.6	85	14.9	0	2	292	0.00	30.134 
23:35	18.4	18.4	18.4	85	14.7	0	1	292	0.00	30.135 
23:40	18.3	18.3	18.3	86	14.8	0	2	292	0.00	30.136 
23:45	18.3	18.3	18.3	86	14.8	0	2	292	0.00	30.138 
23:50	18.1	18.1	18.1	86	14.6	0	3	292	0.00	30.142 
23:55	18.1	18.1	18.1	86	14.6	0	1	338	0.00	30.143 

CoCoRaHS
IN-AL-39
A2 Web Hosting
Creative Commons License
GoDaddy
search engine by freefind advanced

loaded 2018-11-17 22:40:37 • last modified 2010-11-18 10:43:29
Privacy PolicyDisclaimer
• wx.awcolley.com is powered by PmWiki v.2002016 •
• all content (unless otherwise noted) © 2018 A W Colley